Pagrindinis puslapis
METAR-TAF:

METAR-TAF

Oro uostai :

Sionas, Šveicarija

platuma: 46-13N, ilguma: 007-20E, Aukštis: 482 m

Dabartinis oras

Ataskaita buvo paskelbta 24 minutes, ne 12:50 UTC
Vėjas 3 kt nuo kintamojo kryptimis
Temperatūra 18°C
Drėgmė 22%
Slėgis 1029 hPa
Matomumas 10 km arba daugiau
nėra debesų žemiau 1500 m ir nėra kamuolinių lietaus debesų

METAR: LSGS 251250Z AUTO VRB03KT CAVOK 18/M04 Q1029

Laikas: 14:14 (13:14 UTC)

Prognozė

Ataskaita buvo paskelbta 1 valandą ir 49 minutes, ne 11:25 UTC
Prognozė galioja nuo 25 metu 12 UTC su 25 metu 21 UTC
Vėjas 5 kt iš Rytų
Matomumas 10 km arba daugiau
nėra debesų žemiau 1500 m ir nėra kamuolinių lietaus debesų

TAF: LSGS 251125Z 2512/2521 09005KT CAVOK

Orai ataskaitas ir orų prognozės (METAR, TAF).

turimą stotys yra geltonos ir raudonos taškus žemėlapyje.

Perkelti pele per norėdami pamatyti stoties vardą.

Tada spustelėkite, norėdami matyti oro stebėjimo ir prognozės.

Norėdami pakeisti žemėlapį: spustelėkite ant žalios mygtukų su juodo kryžiaus žemyn,; žalią mygtuką su brūkšneliu, jei norite nutolinti; arba žalių rodyklių gretimoms žemėlapius.


METAR-TAF: